sensor_id;sensor_type;location;lat;lon;timestamp;P1;P2;P0
42410;PMS5003;28056;51.112;0.984;2022-07-11T00:00:10;5;5;
42410;PMS5003;28056;51.112;0.984;2022-07-11T00:04:46;5;5;
42410;PMS5003;28056;51.112;0.984;2022-07-11T00:07:14;7;6;
42410;PMS5003;28056;51.112;0.984;2022-07-11T00:09:42;5;5;
42410;PMS5003;28056;51.112;0.984;2022-07-11T00:12:10;4;4;
42410;PMS5003;28056;51.112;0.984;2022-07-11T00:14:38;4;4;
42410;PMS5003;28056;51.112;0.984;2022-07-11T00:17:07;4;4;
42410;PMS5003;28056;51.112;0.984;2022-07-11T00:19:35;4;4;
42410;PMS5003;28056;51.112;0.984;2022-07-11T00:22:03;4;4;
42410;PMS5003;28056;51.112;0.984;2022-07-11T00:24:31;4;4;
42410;PMS5003;28056;51.112;0.984;2022-07-11T00:26:59;5;5;
42410;PMS5003;28056;51.112;0.984;2022-07-11T00:29:27;5;5;
42410;PMS5003;28056;51.112;0.984;2022-07-11T00:31:54;7;6;
42410;PMS5003;28056;51.112;0.984;2022-07-11T00:34:22;6;5;
42410;PMS5003;28056;51.112;0.984;2022-07-11T00:36:49;5;5;
42410;PMS5003;28056;51.112;0.984;2022-07-11T00:39:17;5;5;
42410;PMS5003;28056;51.112;0.984;2022-07-11T00:41:44;6;6;
42410;PMS5003;28056;51.112;0.984;2022-07-11T00:44:12;6;6;
42410;PMS5003;28056;51.112;0.984;2022-07-11T00:46:40;7;5;
42410;PMS5003;28056;51.112;0.984;2022-07-11T00:49:07;6;6;
42410;PMS5003;28056;51.112;0.984;2022-07-11T00:51:35;5;4;
42410;PMS5003;28056;51.112;0.984;2022-07-11T00:54:03;4;4;
42410;PMS5003;28056;51.112;0.984;2022-07-11T00:56:34;8;8;
42410;PMS5003;28056;51.112;0.984;2022-07-11T00:59:02;5;4;
42410;PMS5003;28056;51.112;0.984;2022-07-11T01:01:29;5;5;
42410;PMS5003;28056;51.112;0.984;2022-07-11T01:03:59;6;4;
42410;PMS5003;28056;51.112;0.984;2022-07-11T01:06:28;8;5;
42410;PMS5003;28056;51.112;0.984;2022-07-11T01:08:56;4;4;
42410;PMS5003;28056;51.112;0.984;2022-07-11T01:11:23;4;4;
42410;PMS5003;28056;51.112;0.984;2022-07-11T01:13:52;4;4;
42410;PMS5003;28056;51.112;0.984;2022-07-11T01:16:20;5;5;
42410;PMS5003;28056;51.112;0.984;2022-07-11T01:18:49;5;5;
42410;PMS5003;28056;51.112;0.984;2022-07-11T01:21:19;5;5;
42410;PMS5003;28056;51.112;0.984;2022-07-11T01:23:50;4;4;
42410;PMS5003;28056;51.112;0.984;2022-07-11T01:26:19;5;5;
42410;PMS5003;28056;51.112;0.984;2022-07-11T01:28:48;5;5;
42410;PMS5003;28056;51.112;0.984;2022-07-11T01:31:16;4;4;
42410;PMS5003;28056;51.112;0.984;2022-07-11T01:33:45;3;3;
42410;PMS5003;28056;51.112;0.984;2022-07-11T01:36:12;6;6;
42410;PMS5003;28056;51.112;0.984;2022-07-11T01:38:40;5;5;
42410;PMS5003;28056;51.112;0.984;2022-07-11T01:41:07;6;6;
42410;PMS5003;28056;51.112;0.984;2022-07-11T01:43:35;4;4;
42410;PMS5003;28056;51.112;0.984;2022-07-11T01:46:02;7;6;
42410;PMS5003;28056;51.112;0.984;2022-07-11T01:48:30;6;6;
42410;PMS5003;28056;51.112;0.984;2022-07-11T01:50:58;7;7;
42410;PMS5003;28056;51.112;0.984;2022-07-11T01:53:26;7;7;
42410;PMS5003;28056;51.112;0.984;2022-07-11T01:55:53;6;6;
42410;PMS5003;28056;51.112;0.984;2022-07-11T01:58:20;6;6;
42410;PMS5003;28056;51.112;0.984;2022-07-11T02:00:58;7;5;
42410;PMS5003;28056;51.112;0.984;2022-07-11T02:03:32;9;7;
42410;PMS5003;28056;51.112;0.984;2022-07-11T02:05:59;7;7;
42410;PMS5003;28056;51.112;0.984;2022-07-11T02:08:27;8;7;
42410;PMS5003;28056;51.112;0.984;2022-07-11T02:10:54;8;8;
42410;PMS5003;28056;51.112;0.984;2022-07-11T02:13:22;9;8;
42410;PMS5003;28056;51.112;0.984;2022-07-11T02:15:50;8;8;
42410;PMS5003;28056;51.112;0.984;2022-07-11T02:18:18;8;6;
42410;PMS5003;28056;51.112;0.984;2022-07-11T02:20:46;5;5;
42410;PMS5003;28056;51.112;0.984;2022-07-11T02:23:14;9;7;
42410;PMS5003;28056;51.112;0.984;2022-07-11T02:25:42;7;7;
42410;PMS5003;28056;51.112;0.984;2022-07-11T02:28:10;7;7;
42410;PMS5003;28056;51.112;0.984;2022-07-11T02:30:37;8;8;
42410;PMS5003;28056;51.112;0.984;2022-07-11T02:33:06;7;5;
42410;PMS5003;28056;51.112;0.984;2022-07-11T02:35:34;9;7;
42410;PMS5003;28056;51.112;0.984;2022-07-11T02:38:02;7;7;
42410;PMS5003;28056;51.112;0.984;2022-07-11T02:40:29;7;7;
42410;PMS5003;28056;51.112;0.984;2022-07-11T02:42:57;6;6;
42410;PMS5003;28056;51.112;0.984;2022-07-11T02:45:25;7;7;
42410;PMS5003;28056;51.112;0.984;2022-07-11T02:47:52;8;8;
42410;PMS5003;28056;51.112;0.984;2022-07-11T02:50:20;6;6;
42410;PMS5003;28056;51.112;0.984;2022-07-11T02:52:47;8;8;
42410;PMS5003;28056;51.112;0.984;2022-07-11T02:55:15;7;7;
42410;PMS5003;28056;51.112;0.984;2022-07-11T02:57:43;5;5;
42410;PMS5003;28056;51.112;0.984;2022-07-11T03:00:11;6;5;
42410;PMS5003;28056;51.112;0.984;2022-07-11T03:02:41;4;4;
42410;PMS5003;28056;51.112;0.984;2022-07-11T03:05:09;6;6;
42410;PMS5003;28056;51.112;0.984;2022-07-11T03:07:37;6;6;
42410;PMS5003;28056;51.112;0.984;2022-07-11T03:10:05;7;6;
42410;PMS5003;28056;51.112;0.984;2022-07-11T03:12:33;6;4;
42410;PMS5003;28056;51.112;0.984;2022-07-11T03:15:00;5;5;
42410;PMS5003;28056;51.112;0.984;2022-07-11T03:17:28;6;6;
42410;PMS5003;28056;51.112;0.984;2022-07-11T03:19:56;6;6;
42410;PMS5003;28056;51.112;0.984;2022-07-11T03:22:23;5;5;
42410;PMS5003;28056;51.112;0.984;2022-07-11T03:24:51;7;6;
42410;PMS5003;28056;51.112;0.984;2022-07-11T03:27:19;6;4;
42410;PMS5003;28056;51.112;0.984;2022-07-11T03:29:46;5;5;
42410;PMS5003;28056;51.112;0.984;2022-07-11T03:32:14;6;6;
42410;PMS5003;28056;51.112;0.984;2022-07-11T03:34:42;5;5;
42410;PMS5003;28056;51.112;0.984;2022-07-11T03:37:09;4;4;
42410;PMS5003;28056;51.112;0.984;2022-07-11T03:39:37;7;5;
42410;PMS5003;28056;51.112;0.984;2022-07-11T03:42:05;5;5;
42410;PMS5003;28056;51.112;0.984;2022-07-11T03:44:32;6;5;
42410;PMS5003;28056;51.112;0.984;2022-07-11T03:47:00;8;7;
42410;PMS5003;28056;51.112;0.984;2022-07-11T03:49:28;5;5;
42410;PMS5003;28056;51.112;0.984;2022-07-11T03:51:55;4;4;
42410;PMS5003;28056;51.112;0.984;2022-07-11T03:54:23;5;3;
42410;PMS5003;28056;51.112;0.984;2022-07-11T03:56:51;6;6;
42410;PMS5003;28056;51.112;0.984;2022-07-11T03:59:18;6;6;
42410;PMS5003;28056;51.112;0.984;2022-07-11T04:01:46;6;6;
42410;PMS5003;28056;51.112;0.984;2022-07-11T04:04:14;5;5;
42410;PMS5003;28056;51.112;0.984;2022-07-11T04:06:41;6;6;
42410;PMS5003;28056;51.112;0.984;2022-07-11T04:09:09;8;6;
42410;PMS5003;28056;51.112;0.984;2022-07-11T04:11:37;6;6;
42410;PMS5003;28056;51.112;0.984;2022-07-11T04:14:04;7;7;
42410;PMS5003;28056;51.112;0.984;2022-07-11T04:16:32;7;6;
42410;PMS5003;28056;51.112;0.984;2022-07-11T04:18:59;8;8;
42410;PMS5003;28056;51.112;0.984;2022-07-11T04:21:27;8;8;
42410;PMS5003;28056;51.112;0.984;2022-07-11T04:23:55;6;6;
42410;PMS5003;28056;51.112;0.984;2022-07-11T04:26:22;8;6;
42410;PMS5003;28056;51.112;0.984;2022-07-11T04:28:50;11;6;
42410;PMS5003;28056;51.112;0.984;2022-07-11T04:31:18;8;6;
42410;PMS5003;28056;51.112;0.984;2022-07-11T04:33:45;8;8;
42410;PMS5003;28056;51.112;0.984;2022-07-11T04:36:13;6;6;
42410;PMS5003;28056;51.112;0.984;2022-07-11T04:38:41;6;6;
42410;PMS5003;28056;51.112;0.984;2022-07-11T04:41:08;7;7;
42410;PMS5003;28056;51.112;0.984;2022-07-11T04:43:36;6;6;
42410;PMS5003;28056;51.112;0.984;2022-07-11T04:46:04;5;5;
42410;PMS5003;28056;51.112;0.984;2022-07-11T04:48:31;7;7;
42410;PMS5003;28056;51.112;0.984;2022-07-11T04:50:59;8;5;
42410;PMS5003;28056;51.112;0.984;2022-07-11T04:53:27;5;5;
42410;PMS5003;28056;51.112;0.984;2022-07-11T04:55:54;6;6;
42410;PMS5003;28056;51.112;0.984;2022-07-11T04:58:22;6;5;
42410;PMS5003;28056;51.112;0.984;2022-07-11T05:00:50;6;6;
42410;PMS5003;28056;51.112;0.984;2022-07-11T05:03:17;6;6;
42410;PMS5003;28056;51.112;0.984;2022-07-11T05:05:45;7;5;
42410;PMS5003;28056;51.112;0.984;2022-07-11T05:08:12;5;5;
42410;PMS5003;28056;51.112;0.984;2022-07-11T05:10:40;5;5;
42410;PMS5003;28056;51.112;0.984;2022-07-11T05:13:07;7;6;
42410;PMS5003;28056;51.112;0.984;2022-07-11T05:15:35;5;5;
42410;PMS5003;28056;51.112;0.984;2022-07-11T05:18:03;4;4;
42410;PMS5003;28056;51.112;0.984;2022-07-11T05:20:31;7;5;
42410;PMS5003;28056;51.112;0.984;2022-07-11T05:22:58;4;4;
42410;PMS5003;28056;51.112;0.984;2022-07-11T05:25:26;6;4;
42410;PMS5003;28056;51.112;0.984;2022-07-11T05:27:53;7;6;
42410;PMS5003;28056;51.112;0.984;2022-07-11T05:30:21;5;5;
42410;PMS5003;28056;51.112;0.984;2022-07-11T05:32:49;8;8;
42410;PMS5003;28056;51.112;0.984;2022-07-11T05:35:16;6;6;
42410;PMS5003;28056;51.112;0.984;2022-07-11T05:37:44;6;6;
42410;PMS5003;28056;51.112;0.984;2022-07-11T05:40:12;9;7;
42410;PMS5003;28056;51.112;0.984;2022-07-11T05:42:39;5;5;
42410;PMS5003;28056;51.112;0.984;2022-07-11T05:45:07;7;7;
42410;PMS5003;28056;51.112;0.984;2022-07-11T05:47:35;4;4;
42410;PMS5003;28056;51.112;0.984;2022-07-11T05:50:03;5;5;
42410;PMS5003;28056;51.112;0.984;2022-07-11T05:52:32;6;6;
42410;PMS5003;28056;51.112;0.984;2022-07-11T05:54:59;6;6;
42410;PMS5003;28056;51.112;0.984;2022-07-11T05:57:27;6;5;
42410;PMS5003;28056;51.112;0.984;2022-07-11T05:59:55;6;6;
42410;PMS5003;28056;51.112;0.984;2022-07-11T06:02:22;6;6;
42410;PMS5003;28056;51.112;0.984;2022-07-11T06:04:50;8;7;
42410;PMS5003;28056;51.112;0.984;2022-07-11T06:07:18;6;6;
42410;PMS5003;28056;51.112;0.984;2022-07-11T06:09:45;9;7;
42410;PMS5003;28056;51.112;0.984;2022-07-11T06:12:13;6;6;
42410;PMS5003;28056;51.112;0.984;2022-07-11T06:14:40;6;6;
42410;PMS5003;28056;51.112;0.984;2022-07-11T06:17:08;8;7;
42410;PMS5003;28056;51.112;0.984;2022-07-11T06:19:35;5;4;
42410;PMS5003;28056;51.112;0.984;2022-07-11T06:22:03;8;8;
42410;PMS5003;28056;51.112;0.984;2022-07-11T06:24:31;6;6;
42410;PMS5003;28056;51.112;0.984;2022-07-11T06:26:58;8;8;
42410;PMS5003;28056;51.112;0.984;2022-07-11T06:29:26;9;9;
42410;PMS5003;28056;51.112;0.984;2022-07-11T06:31:53;10;9;
42410;PMS5003;28056;51.112;0.984;2022-07-11T06:34:21;6;5;
42410;PMS5003;28056;51.112;0.984;2022-07-11T06:36:49;7;7;
42410;PMS5003;28056;51.112;0.984;2022-07-11T06:39:16;8;7;
42410;PMS5003;28056;51.112;0.984;2022-07-11T06:41:44;7;7;
42410;PMS5003;28056;51.112;0.984;2022-07-11T06:44:11;8;7;
42410;PMS5003;28056;51.112;0.984;2022-07-11T06:46:39;8;6;
42410;PMS5003;28056;51.112;0.984;2022-07-11T06:49:06;5;5;
42410;PMS5003;28056;51.112;0.984;2022-07-11T06:51:34;6;4;
42410;PMS5003;28056;51.112;0.984;2022-07-11T06:54:02;6;5;
42410;PMS5003;28056;51.112;0.984;2022-07-11T06:56:29;4;4;
42410;PMS5003;28056;51.112;0.984;2022-07-11T06:58:57;5;5;
42410;PMS5003;28056;51.112;0.984;2022-07-11T07:01:25;4;4;
42410;PMS5003;28056;51.112;0.984;2022-07-11T07:03:52;2;2;
42410;PMS5003;28056;51.112;0.984;2022-07-11T07:06:19;5;3;
42410;PMS5003;28056;51.112;0.984;2022-07-11T07:08:47;2;2;
42410;PMS5003;28056;51.112;0.984;2022-07-11T07:11:14;2;2;
42410;PMS5003;28056;51.112;0.984;2022-07-11T07:13:42;4;3;
42410;PMS5003;28056;51.112;0.984;2022-07-11T07:16:09;3;3;
42410;PMS5003;28056;51.112;0.984;2022-07-11T07:18:37;3;3;
42410;PMS5003;28056;51.112;0.984;2022-07-11T07:21:05;4;4;
42410;PMS5003;28056;51.112;0.984;2022-07-11T07:23:32;5;4;
42410;PMS5003;28056;51.112;0.984;2022-07-11T07:26:01;4;4;
42410;PMS5003;28056;51.112;0.984;2022-07-11T07:28:28;2;2;
42410;PMS5003;28056;51.112;0.984;2022-07-11T07:30:55;4;3;
42410;PMS5003;28056;51.112;0.984;2022-07-11T07:33:23;3;3;
42410;PMS5003;28056;51.112;0.984;2022-07-11T07:35:50;3;3;
42410;PMS5003;28056;51.112;0.984;2022-07-11T07:38:18;2;2;
42410;PMS5003;28056;51.112;0.984;2022-07-11T07:40:45;2;2;
42410;PMS5003;28056;51.112;0.984;2022-07-11T07:43:13;3;3;
42410;PMS5003;28056;51.112;0.984;2022-07-11T07:45:41;3;3;
42410;PMS5003;28056;51.112;0.984;2022-07-11T07:48:09;2;2;
42410;PMS5003;28056;51.112;0.984;2022-07-11T07:50:36;2;2;
42410;PMS5003;28056;51.112;0.984;2022-07-11T07:53:04;3;3;
42410;PMS5003;28056;51.112;0.984;2022-07-11T07:55:31;2;2;
42410;PMS5003;28056;51.112;0.984;2022-07-11T07:57:59;2;2;
42410;PMS5003;28056;51.112;0.984;2022-07-11T08:00:27;2;2;
42410;PMS5003;28056;51.112;0.984;2022-07-11T08:02:54;2;2;
42410;PMS5003;28056;51.112;0.984;2022-07-11T08:05:21;2;2;
42410;PMS5003;28056;51.112;0.984;2022-07-11T08:07:49;2;2;
42410;PMS5003;28056;51.112;0.984;2022-07-11T08:10:17;3;3;
42410;PMS5003;28056;51.112;0.984;2022-07-11T08:12:45;2;2;
42410;PMS5003;28056;51.112;0.984;2022-07-11T08:15:12;2;2;
42410;PMS5003;28056;51.112;0.984;2022-07-11T08:17:40;3;3;
42410;PMS5003;28056;51.112;0.984;2022-07-11T08:20:07;3;3;
42410;PMS5003;28056;51.112;0.984;2022-07-11T08:22:35;2;2;
42410;PMS5003;28056;51.112;0.984;2022-07-11T08:25:03;2;2;
42410;PMS5003;28056;51.112;0.984;2022-07-11T08:27:31;4;4;
42410;PMS5003;28056;51.112;0.984;2022-07-11T08:29:59;5;5;
42410;PMS5003;28056;51.112;0.984;2022-07-11T08:32:26;3;3;
42410;PMS5003;28056;51.112;0.984;2022-07-11T08:34:54;5;5;
42410;PMS5003;28056;51.112;0.984;2022-07-11T08:37:22;4;3;
42410;PMS5003;28056;51.112;0.984;2022-07-11T08:39:49;4;4;
42410;PMS5003;28056;51.112;0.984;2022-07-11T08:42:18;4;4;
42410;PMS5003;28056;51.112;0.984;2022-07-11T08:44:46;3;3;
42410;PMS5003;28056;51.112;0.984;2022-07-11T08:47:13;5;4;
42410;PMS5003;28056;51.112;0.984;2022-07-11T08:49:41;3;3;
42410;PMS5003;28056;51.112;0.984;2022-07-11T08:52:11;5;4;
42410;PMS5003;28056;51.112;0.984;2022-07-11T08:54:39;4;4;
42410;PMS5003;28056;51.112;0.984;2022-07-11T08:57:06;5;5;
42410;PMS5003;28056;51.112;0.984;2022-07-11T08:59:35;5;3;
42410;PMS5003;28056;51.112;0.984;2022-07-11T09:02:03;4;3;
42410;PMS5003;28056;51.112;0.984;2022-07-11T09:04:33;4;4;
42410;PMS5003;28056;51.112;0.984;2022-07-11T09:07:01;5;4;
42410;PMS5003;28056;51.112;0.984;2022-07-11T09:09:29;4;4;
42410;PMS5003;28056;51.112;0.984;2022-07-11T09:11:57;2;2;
42410;PMS5003;28056;51.112;0.984;2022-07-11T09:14:25;4;3;
42410;PMS5003;28056;51.112;0.984;2022-07-11T09:16:54;5;5;
42410;PMS5003;28056;51.112;0.984;2022-07-11T09:19:23;5;4;
42410;PMS5003;28056;51.112;0.984;2022-07-11T09:22:00;4;4;
42410;PMS5003;28056;51.112;0.984;2022-07-11T09:24:29;4;4;
42410;PMS5003;28056;51.112;0.984;2022-07-11T09:27:02;3;3;
42410;PMS5003;28056;51.112;0.984;2022-07-11T09:29:37;3;3;
42410;PMS5003;28056;51.112;0.984;2022-07-11T09:32:05;6;6;
42410;PMS5003;28056;51.112;0.984;2022-07-11T09:34:32;4;4;
42410;PMS5003;28056;51.112;0.984;2022-07-11T09:37:00;3;3;
42410;PMS5003;28056;51.112;0.984;2022-07-11T09:39:28;2;2;
42410;PMS5003;28056;51.112;0.984;2022-07-11T09:41:55;3;3;
42410;PMS5003;28056;51.112;0.984;2022-07-11T09:44:25;5;5;
42410;PMS5003;28056;51.112;0.984;2022-07-11T09:46:53;3;3;
42410;PMS5003;28056;51.112;0.984;2022-07-11T09:49:29;3;3;
42410;PMS5003;28056;51.112;0.984;2022-07-11T09:52:05;4;4;
42410;PMS5003;28056;51.112;0.984;2022-07-11T09:54:34;4;4;
42410;PMS5003;28056;51.112;0.984;2022-07-11T09:57:28;5;5;
42410;PMS5003;28056;51.112;0.984;2022-07-11T09:59:56;3;3;
42410;PMS5003;28056;51.112;0.984;2022-07-11T10:02:25;6;4;
42410;PMS5003;28056;51.112;0.984;2022-07-11T10:04:52;3;3;
42410;PMS5003;28056;51.112;0.984;2022-07-11T10:07:19;4;4;
42410;PMS5003;28056;51.112;0.984;2022-07-11T10:09:47;4;4;
42410;PMS5003;28056;51.112;0.984;2022-07-11T10:12:14;7;4;
42410;PMS5003;28056;51.112;0.984;2022-07-11T10:14:41;3;3;
42410;PMS5003;28056;51.112;0.984;2022-07-11T10:17:11;3;3;
42410;PMS5003;28056;51.112;0.984;2022-07-11T10:19:47;4;4;
42410;PMS5003;28056;51.112;0.984;2022-07-11T10:22:25;5;3;
42410;PMS5003;28056;51.112;0.984;2022-07-11T10:24:59;4;4;
42410;PMS5003;28056;51.112;0.984;2022-07-11T10:27:39;3;3;
42410;PMS5003;28056;51.112;0.984;2022-07-11T10:30:12;2;2;
42410;PMS5003;28056;51.112;0.984;2022-07-11T10:33:01;3;2;
42410;PMS5003;28056;51.112;0.984;2022-07-11T10:35:32;5;5;
42410;PMS5003;28056;51.112;0.984;2022-07-11T10:37:59;4;3;
42410;PMS5003;28056;51.112;0.984;2022-07-11T10:40:48;3;3;
42410;PMS5003;28056;51.112;0.984;2022-07-11T10:43:32;4;3;
42410;PMS5003;28056;51.112;0.984;2022-07-11T10:46:01;3;3;
42410;PMS5003;28056;51.112;0.984;2022-07-11T10:48:31;3;3;
42410;PMS5003;28056;51.112;0.984;2022-07-11T10:51:03;3;3;
42410;PMS5003;28056;51.112;0.984;2022-07-11T10:53:39;5;5;
42410;PMS5003;28056;51.112;0.984;2022-07-11T10:56:14;5;3;
42410;PMS5003;28056;51.112;0.984;2022-07-11T10:58:55;3;3;
42410;PMS5003;28056;51.112;0.984;2022-07-11T11:01:29;3;3;
42410;PMS5003;28056;51.112;0.984;2022-07-11T11:04:40;3;3;
42410;PMS5003;28056;51.112;0.984;2022-07-11T11:07:26;4;4;
42410;PMS5003;28056;51.112;0.984;2022-07-11T11:09:55;5;3;
42410;PMS5003;28056;51.112;0.984;2022-07-11T11:13:38;4;4;
42410;PMS5003;28056;51.112;0.984;2022-07-11T11:16:17;3;3;
42410;PMS5003;28056;51.112;0.984;2022-07-11T11:18:46;4;4;
42410;PMS5003;28056;51.112;0.984;2022-07-11T11:21:18;3;3;
42410;PMS5003;28056;51.112;0.984;2022-07-11T11:24:01;4;4;
42410;PMS5003;28056;51.112;0.984;2022-07-11T11:26:48;4;3;
42410;PMS5003;28056;51.112;0.984;2022-07-11T11:29:18;3;3;
42410;PMS5003;28056;51.112;0.984;2022-07-11T11:31:48;2;2;
42410;PMS5003;28056;51.112;0.984;2022-07-11T11:34:17;4;4;
42410;PMS5003;28056;51.112;0.984;2022-07-11T11:36:44;4;4;
42410;PMS5003;28056;51.112;0.984;2022-07-11T11:39:24;2;2;
42410;PMS5003;28056;51.112;0.984;2022-07-11T11:41:54;3;3;
42410;PMS5003;28056;51.112;0.984;2022-07-11T11:44:27;2;2;
42410;PMS5003;28056;51.112;0.984;2022-07-11T11:46:54;5;5;
42410;PMS5003;28056;51.112;0.984;2022-07-11T11:49:21;3;3;
42410;PMS5003;28056;51.112;0.984;2022-07-11T11:51:49;5;3;
42410;PMS5003;28056;51.112;0.984;2022-07-11T11:54:21;6;5;
42410;PMS5003;28056;51.112;0.984;2022-07-11T11:56:50;5;4;
42410;PMS5003;28056;51.112;0.984;2022-07-11T11:59:17;4;3;
42410;PMS5003;28056;51.112;0.984;2022-07-11T12:01:54;3;3;
42410;PMS5003;28056;51.112;0.984;2022-07-11T12:04:22;4;2;
42410;PMS5003;28056;51.112;0.984;2022-07-11T12:06:49;3;3;
42410;PMS5003;28056;51.112;0.984;2022-07-11T12:09:17;4;4;
42410;PMS5003;28056;51.112;0.984;2022-07-11T12:11:46;2;2;
42410;PMS5003;28056;51.112;0.984;2022-07-11T12:14:15;3;3;
42410;PMS5003;28056;51.112;0.984;2022-07-11T12:16:43;4;4;
42410;PMS5003;28056;51.112;0.984;2022-07-11T12:19:12;2;2;
42410;PMS5003;28056;51.112;0.984;2022-07-11T12:21:42;4;4;
42410;PMS5003;28056;51.112;0.984;2022-07-11T12:24:15;4;4;
42410;PMS5003;28056;51.112;0.984;2022-07-11T12:26:44;2;2;
42410;PMS5003;28056;51.112;0.984;2022-07-11T12:29:12;4;4;
42410;PMS5003;28056;51.112;0.984;2022-07-11T12:31:41;5;5;
42410;PMS5003;28056;51.112;0.984;2022-07-11T12:34:10;3;3;
42410;PMS5003;28056;51.112;0.984;2022-07-11T12:36:38;4;4;
42410;PMS5003;28056;51.112;0.984;2022-07-11T12:39:05;2;2;
42410;PMS5003;28056;51.112;0.984;2022-07-11T12:41:33;4;4;
42410;PMS5003;28056;51.112;0.984;2022-07-11T12:44:01;4;4;
42410;PMS5003;28056;51.112;0.984;2022-07-11T12:46:29;3;3;
42410;PMS5003;28056;51.112;0.984;2022-07-11T12:48:57;1;1;
42410;PMS5003;28056;51.112;0.984;2022-07-11T12:51:27;2;2;
42410;PMS5003;28056;51.112;0.984;2022-07-11T12:53:59;3;3;
42410;PMS5003;28056;51.112;0.984;2022-07-11T12:56:28;5;4;
42410;PMS5003;28056;51.112;0.984;2022-07-11T12:58:56;3;3;
42410;PMS5003;28056;51.112;0.984;2022-07-11T13:01:23;3;3;
42410;PMS5003;28056;51.112;0.984;2022-07-11T13:03:50;3;3;
42410;PMS5003;28056;51.112;0.984;2022-07-11T13:06:18;3;3;
42410;PMS5003;28056;51.112;0.984;2022-07-11T13:08:46;4;3;
42410;PMS5003;28056;51.112;0.984;2022-07-11T13:11:14;3;3;
42410;PMS5003;28056;51.112;0.984;2022-07-11T13:13:43;3;3;
42410;PMS5003;28056;51.112;0.984;2022-07-11T13:16:11;6;3;
42410;PMS5003;28056;51.112;0.984;2022-07-11T13:18:39;3;3;
42410;PMS5003;28056;51.112;0.984;2022-07-11T13:21:07;3;3;
42410;PMS5003;28056;51.112;0.984;2022-07-11T13:23:35;3;3;
42410;PMS5003;28056;51.112;0.984;2022-07-11T13:26:03;3;3;
42410;PMS5003;28056;51.112;0.984;2022-07-11T13:28:32;3;3;
42410;PMS5003;28056;51.112;0.984;2022-07-11T13:30:59;4;4;
42410;PMS5003;28056;51.112;0.984;2022-07-11T13:33:27;3;3;
42410;PMS5003;28056;51.112;0.984;2022-07-11T13:35:55;4;3;
42410;PMS5003;28056;51.112;0.984;2022-07-11T13:38:22;5;4;
42410;PMS5003;28056;51.112;0.984;2022-07-11T13:40:49;2;2;
42410;PMS5003;28056;51.112;0.984;2022-07-11T13:43:17;1;1;
42410;PMS5003;28056;51.112;0.984;2022-07-11T13:45:44;5;3;
42410;PMS5003;28056;51.112;0.984;2022-07-11T13:48:11;5;3;
42410;PMS5003;28056;51.112;0.984;2022-07-11T13:50:39;2;2;
42410;PMS5003;28056;51.112;0.984;2022-07-11T13:53:06;1;1;
42410;PMS5003;28056;51.112;0.984;2022-07-11T13:55:34;3;3;
42410;PMS5003;28056;51.112;0.984;2022-07-11T13:58:01;4;4;
42410;PMS5003;28056;51.112;0.984;2022-07-11T14:00:29;2;2;
42410;PMS5003;28056;51.112;0.984;2022-07-11T14:02:56;4;2;
42410;PMS5003;28056;51.112;0.984;2022-07-11T14:05:23;4;4;
42410;PMS5003;28056;51.112;0.984;2022-07-11T14:07:50;2;2;
42410;PMS5003;28056;51.112;0.984;2022-07-11T14:10:18;2;2;
42410;PMS5003;28056;51.112;0.984;2022-07-11T14:12:45;3;3;
42410;PMS5003;28056;51.112;0.984;2022-07-11T14:15:13;2;2;
42410;PMS5003;28056;51.112;0.984;2022-07-11T14:17:42;4;3;
42410;PMS5003;28056;51.112;0.984;2022-07-11T14:20:10;2;2;
42410;PMS5003;28056;51.112;0.984;2022-07-11T14:22:38;3;3;
42410;PMS5003;28056;51.112;0.984;2022-07-11T14:25:05;3;3;
42410;PMS5003;28056;51.112;0.984;2022-07-11T14:27:33;2;2;
42410;PMS5003;28056;51.112;0.984;2022-07-11T14:30:00;3;2;
42410;PMS5003;28056;51.112;0.984;2022-07-11T14:32:28;3;3;
42410;PMS5003;28056;51.112;0.984;2022-07-11T14:34:55;2;2;
42410;PMS5003;28056;51.112;0.984;2022-07-11T14:37:23;3;3;
42410;PMS5003;28056;51.112;0.984;2022-07-11T14:39:50;2;2;
42410;PMS5003;28056;51.112;0.984;2022-07-11T14:42:18;2;2;
42410;PMS5003;28056;51.112;0.984;2022-07-11T14:44:45;2;2;
42410;PMS5003;28056;51.112;0.984;2022-07-11T14:47:12;2;2;
42410;PMS5003;28056;51.112;0.984;2022-07-11T14:49:40;4;2;
42410;PMS5003;28056;51.112;0.984;2022-07-11T14:52:07;2;2;
42410;PMS5003;28056;51.112;0.984;2022-07-11T14:54:34;4;3;
42410;PMS5003;28056;51.112;0.984;2022-07-11T14:57:02;1;1;
42410;PMS5003;28056;51.112;0.984;2022-07-11T14:59:30;2;2;
42410;PMS5003;28056;51.112;0.984;2022-07-11T15:01:57;2;2;
42410;PMS5003;28056;51.112;0.984;2022-07-11T15:04:24;5;3;
42410;PMS5003;28056;51.112;0.984;2022-07-11T15:06:52;1;1;
42410;PMS5003;28056;51.112;0.984;2022-07-11T15:09:19;5;5;
42410;PMS5003;28056;51.112;0.984;2022-07-11T15:11:46;2;2;
42410;PMS5003;28056;51.112;0.984;2022-07-11T15:14:14;5;5;
42410;PMS5003;28056;51.112;0.984;2022-07-11T15:16:41;4;2;
42410;PMS5003;28056;51.112;0.984;2022-07-11T15:19:10;4;4;
42410;PMS5003;28056;51.112;0.984;2022-07-11T15:21:37;2;2;
42410;PMS5003;28056;51.112;0.984;2022-07-11T15:24:05;3;3;
42410;PMS5003;28056;51.112;0.984;2022-07-11T15:26:33;4;4;
42410;PMS5003;28056;51.112;0.984;2022-07-11T15:29:00;3;3;
42410;PMS5003;28056;51.112;0.984;2022-07-11T15:31:28;2;1;
42410;PMS5003;28056;51.112;0.984;2022-07-11T15:33:55;3;3;
42410;PMS5003;28056;51.112;0.984;2022-07-11T15:36:22;3;3;
42410;PMS5003;28056;51.112;0.984;2022-07-11T15:38:50;4;4;
42410;PMS5003;28056;51.112;0.984;2022-07-11T15:41:17;3;1;
42410;PMS5003;28056;51.112;0.984;2022-07-11T15:43:44;4;2;
42410;PMS5003;28056;51.112;0.984;2022-07-11T15:46:11;3;3;
42410;PMS5003;28056;51.112;0.984;2022-07-11T15:48:39;3;3;
42410;PMS5003;28056;51.112;0.984;2022-07-11T15:51:06;3;3;
42410;PMS5003;28056;51.112;0.984;2022-07-11T15:53:34;2;2;
42410;PMS5003;28056;51.112;0.984;2022-07-11T15:56:01;4;4;
42410;PMS5003;28056;51.112;0.984;2022-07-11T15:58:29;4;4;
42410;PMS5003;28056;51.112;0.984;2022-07-11T16:00:57;5;4;
42410;PMS5003;28056;51.112;0.984;2022-07-11T16:03:25;3;3;
42410;PMS5003;28056;51.112;0.984;2022-07-11T16:05:52;3;3;
42410;PMS5003;28056;51.112;0.984;2022-07-11T16:08:20;6;6;
42410;PMS5003;28056;51.112;0.984;2022-07-11T16:10:48;3;3;
42410;PMS5003;28056;51.112;0.984;2022-07-11T16:13:15;4;4;
42410;PMS5003;28056;51.112;0.984;2022-07-11T16:15:43;3;3;
42410;PMS5003;28056;51.112;0.984;2022-07-11T16:18:12;4;4;
42410;PMS5003;28056;51.112;0.984;2022-07-11T16:20:40;5;4;
42410;PMS5003;28056;51.112;0.984;2022-07-11T16:23:09;4;4;
42410;PMS5003;28056;51.112;0.984;2022-07-11T16:25:37;4;4;
42410;PMS5003;28056;51.112;0.984;2022-07-11T16:28:04;2;2;
42410;PMS5003;28056;51.112;0.984;2022-07-11T16:30:32;4;4;
42410;PMS5003;28056;51.112;0.984;2022-07-11T16:33:00;3;3;
42410;PMS5003;28056;51.112;0.984;2022-07-11T16:35:28;3;3;
42410;PMS5003;28056;51.112;0.984;2022-07-11T16:37:56;4;4;
42410;PMS5003;28056;51.112;0.984;2022-07-11T16:40:23;5;4;
42410;PMS5003;28056;51.112;0.984;2022-07-11T16:42:51;3;3;
42410;PMS5003;28056;51.112;0.984;2022-07-11T16:45:18;4;4;
42410;PMS5003;28056;51.112;0.984;2022-07-11T16:47:46;4;3;
42410;PMS5003;28056;51.112;0.984;2022-07-11T16:50:14;4;4;
42410;PMS5003;28056;51.112;0.984;2022-07-11T16:52:41;3;3;
42410;PMS5003;28056;51.112;0.984;2022-07-11T16:55:09;3;3;
42410;PMS5003;28056;51.112;0.984;2022-07-11T16:57:37;5;4;
42410;PMS5003;28056;51.112;0.984;2022-07-11T17:00:05;3;3;
42410;PMS5003;28056;51.112;0.984;2022-07-11T17:02:33;2;2;